sensor_id;sensor_type;location;lat;lon;timestamp;P1;durP1;ratioP1;P2;durP2;ratioP2
72801;SDS011;61891;55.818;37.084;2023-09-19T00:03:34;18.98;;;11.40;;
72801;SDS011;61891;55.818;37.084;2023-09-19T00:06:03;22.60;;;12.90;;
72801;SDS011;61891;55.818;37.084;2023-09-19T00:08:30;23.98;;;12.13;;
72801;SDS011;61891;55.818;37.084;2023-09-19T00:10:58;21.08;;;11.27;;
72801;SDS011;61891;55.818;37.084;2023-09-19T00:13:32;21.65;;;11.05;;
72801;SDS011;61891;55.818;37.084;2023-09-19T00:15:59;21.08;;;11.20;;
72801;SDS011;61891;55.818;37.084;2023-09-19T00:18:25;25.08;;;11.80;;
72801;SDS011;61891;55.818;37.084;2023-09-19T00:20:58;24.05;;;12.68;;
72801;SDS011;61891;55.818;37.084;2023-09-19T00:23:24;22.08;;;11.77;;
72801;SDS011;61891;55.818;37.084;2023-09-19T00:25:50;21.00;;;10.60;;
72801;SDS011;61891;55.818;37.084;2023-09-19T00:28:17;22.30;;;11.35;;
72801;SDS011;61891;55.818;37.084;2023-09-19T00:30:45;19.80;;;11.20;;
72801;SDS011;61891;55.818;37.084;2023-09-19T00:33:15;19.23;;;9.48;;
72801;SDS011;61891;55.818;37.084;2023-09-19T00:38:13;14.45;;;8.48;;
72801;SDS011;61891;55.818;37.084;2023-09-19T00:40:43;14.60;;;8.85;;
72801;SDS011;61891;55.818;37.084;2023-09-19T00:43:10;13.13;;;8.38;;
72801;SDS011;61891;55.818;37.084;2023-09-19T00:45:36;14.48;;;8.93;;
72801;SDS011;61891;55.818;37.084;2023-09-19T00:48:04;13.43;;;8.95;;
72801;SDS011;61891;55.818;37.084;2023-09-19T00:50:32;15.85;;;9.38;;
72801;SDS011;61891;55.818;37.084;2023-09-19T00:52:58;16.63;;;8.50;;
72801;SDS011;61891;55.818;37.084;2023-09-19T00:55:25;16.77;;;8.43;;
72801;SDS011;61891;55.818;37.084;2023-09-19T00:57:51;15.43;;;9.57;;
72801;SDS011;61891;55.818;37.084;2023-09-19T01:03:59;13.30;;;8.50;;
72801;SDS011;61891;55.818;37.084;2023-09-19T01:06:24;14.73;;;8.95;;
72801;SDS011;61891;55.818;37.084;2023-09-19T01:08:51;15.50;;;9.02;;
72801;SDS011;61891;55.818;37.084;2023-09-19T01:16:42;14.18;;;9.05;;
72801;SDS011;61891;55.818;37.084;2023-09-19T01:30:35;11.98;;;7.47;;
72801;SDS011;61891;55.818;37.084;2023-09-19T01:33:05;11.85;;;7.82;;
72801;SDS011;61891;55.818;37.084;2023-09-19T01:35:33;14.50;;;8.05;;
72801;SDS011;61891;55.818;37.084;2023-09-19T01:38:03;13.18;;;8.85;;
72801;SDS011;61891;55.818;37.084;2023-09-19T01:40:29;13.98;;;8.60;;
72801;SDS011;61891;55.818;37.084;2023-09-19T01:45:40;15.52;;;8.43;;
72801;SDS011;61891;55.818;37.084;2023-09-19T01:50:54;13.52;;;8.30;;
72801;SDS011;61891;55.818;37.084;2023-09-19T01:56:12;13.77;;;7.93;;
72801;SDS011;61891;55.818;37.084;2023-09-19T01:58:48;13.77;;;8.57;;
72801;SDS011;61891;55.818;37.084;2023-09-19T02:01:18;11.75;;;8.05;;
72801;SDS011;61891;55.818;37.084;2023-09-19T02:03:47;13.63;;;8.73;;
72801;SDS011;61891;55.818;37.084;2023-09-19T02:06:15;15.25;;;8.95;;
72801;SDS011;61891;55.818;37.084;2023-09-19T02:08:43;13.93;;;9.00;;
72801;SDS011;61891;55.818;37.084;2023-09-19T02:11:13;15.05;;;8.50;;
72801;SDS011;61891;55.818;37.084;2023-09-19T02:13:40;16.42;;;8.88;;
72801;SDS011;61891;55.818;37.084;2023-09-19T02:16:08;15.25;;;8.48;;
72801;SDS011;61891;55.818;37.084;2023-09-19T02:18:36;15.18;;;8.73;;
72801;SDS011;61891;55.818;37.084;2023-09-19T02:21:03;14.18;;;8.57;;
72801;SDS011;61891;55.818;37.084;2023-09-19T02:23:38;13.60;;;8.38;;
72801;SDS011;61891;55.818;37.084;2023-09-19T02:26:06;13.90;;;8.30;;
72801;SDS011;61891;55.818;37.084;2023-09-19T02:28:33;12.68;;;8.45;;
72801;SDS011;61891;55.818;37.084;2023-09-19T02:30:59;15.18;;;8.00;;
72801;SDS011;61891;55.818;37.084;2023-09-19T02:33:26;14.95;;;8.55;;
72801;SDS011;61891;55.818;37.084;2023-09-19T02:35:54;14.20;;;7.95;;
72801;SDS011;61891;55.818;37.084;2023-09-19T02:38:24;12.85;;;8.38;;
72801;SDS011;61891;55.818;37.084;2023-09-19T02:40:52;13.70;;;8.10;;
72801;SDS011;61891;55.818;37.084;2023-09-19T02:43:21;12.43;;;7.30;;
72801;SDS011;61891;55.818;37.084;2023-09-19T02:45:48;12.70;;;8.02;;
72801;SDS011;61891;55.818;37.084;2023-09-19T02:48:22;14.13;;;8.38;;
72801;SDS011;61891;55.818;37.084;2023-09-19T02:50:51;14.80;;;8.18;;
72801;SDS011;61891;55.818;37.084;2023-09-19T02:53:18;15.80;;;8.13;;
72801;SDS011;61891;55.818;37.084;2023-09-19T02:55:44;13.02;;;8.35;;
72801;SDS011;61891;55.818;37.084;2023-09-19T02:58:10;14.43;;;8.35;;
72801;SDS011;61891;55.818;37.084;2023-09-19T03:00:37;13.93;;;8.30;;
72801;SDS011;61891;55.818;37.084;2023-09-19T03:03:04;12.57;;;7.72;;
72801;SDS011;61891;55.818;37.084;2023-09-19T03:05:32;12.48;;;8.15;;
72801;SDS011;61891;55.818;37.084;2023-09-19T03:07:59;11.95;;;7.47;;
72801;SDS011;61891;55.818;37.084;2023-09-19T03:10:29;13.50;;;8.10;;
72801;SDS011;61891;55.818;37.084;2023-09-19T03:12:58;14.75;;;8.75;;
72801;SDS011;61891;55.818;37.084;2023-09-19T03:15:27;13.38;;;8.52;;
72801;SDS011;61891;55.818;37.084;2023-09-19T03:17:53;15.00;;;9.60;;
72801;SDS011;61891;55.818;37.084;2023-09-19T03:20:22;12.63;;;8.57;;
72801;SDS011;61891;55.818;37.084;2023-09-19T03:22:49;15.20;;;8.60;;
72801;SDS011;61891;55.818;37.084;2023-09-19T03:25:16;14.55;;;8.63;;
72801;SDS011;61891;55.818;37.084;2023-09-19T03:27:45;16.80;;;10.27;;
72801;SDS011;61891;55.818;37.084;2023-09-19T03:30:14;14.15;;;8.73;;
72801;SDS011;61891;55.818;37.084;2023-09-19T03:32:45;14.82;;;8.80;;
72801;SDS011;61891;55.818;37.084;2023-09-19T03:35:13;14.20;;;8.88;;
72801;SDS011;61891;55.818;37.084;2023-09-19T03:37:41;20.05;;;9.70;;
72801;SDS011;61891;55.818;37.084;2023-09-19T03:40:11;17.60;;;9.98;;
72801;SDS011;61891;55.818;37.084;2023-09-19T03:42:38;19.30;;;10.90;;
72801;SDS011;61891;55.818;37.084;2023-09-19T03:45:06;19.00;;;10.45;;
72801;SDS011;61891;55.818;37.084;2023-09-19T03:47:36;18.88;;;9.50;;
72801;SDS011;61891;55.818;37.084;2023-09-19T03:50:03;17.65;;;10.55;;
72801;SDS011;61891;55.818;37.084;2023-09-19T03:52:29;20.45;;;10.43;;
72801;SDS011;61891;55.818;37.084;2023-09-19T03:54:55;16.98;;;9.32;;
72801;SDS011;61891;55.818;37.084;2023-09-19T03:57:21;17.85;;;10.05;;
72801;SDS011;61891;55.818;37.084;2023-09-19T03:59:47;18.38;;;10.60;;
72801;SDS011;61891;55.818;37.084;2023-09-19T04:02:13;17.88;;;11.48;;
72801;SDS011;61891;55.818;37.084;2023-09-19T04:04:49;19.35;;;10.82;;
72801;SDS011;61891;55.818;37.084;2023-09-19T04:07:15;30.90;;;16.05;;
72801;SDS011;61891;55.818;37.084;2023-09-19T04:09:42;24.02;;;13.48;;
72801;SDS011;61891;55.818;37.084;2023-09-19T04:12:08;23.95;;;13.27;;
72801;SDS011;61891;55.818;37.084;2023-09-19T04:14:34;25.38;;;12.68;;
72801;SDS011;61891;55.818;37.084;2023-09-19T04:17:00;22.58;;;13.18;;
72801;SDS011;61891;55.818;37.084;2023-09-19T04:19:26;25.10;;;14.30;;
72801;SDS011;61891;55.818;37.084;2023-09-19T04:21:52;26.58;;;15.07;;
72801;SDS011;61891;55.818;37.084;2023-09-19T04:24:18;26.15;;;13.65;;
72801;SDS011;61891;55.818;37.084;2023-09-19T04:26:45;24.95;;;12.30;;
72801;SDS011;61891;55.818;37.084;2023-09-19T04:29:11;39.63;;;20.27;;
72801;SDS011;61891;55.818;37.084;2023-09-19T04:31:39;35.42;;;19.40;;
72801;SDS011;61891;55.818;37.084;2023-09-19T04:34:06;35.10;;;17.67;;
72801;SDS011;61891;55.818;37.084;2023-09-19T04:39:04;30.98;;;16.75;;
72801;SDS011;61891;55.818;37.084;2023-09-19T04:41:30;33.65;;;17.25;;
72801;SDS011;61891;55.818;37.084;2023-09-19T04:43:56;34.17;;;16.83;;
72801;SDS011;61891;55.818;37.084;2023-09-19T04:46:22;33.08;;;16.45;;
72801;SDS011;61891;55.818;37.084;2023-09-19T04:48:48;37.50;;;17.38;;
72801;SDS011;61891;55.818;37.084;2023-09-19T04:51:13;36.58;;;17.00;;
72801;SDS011;61891;55.818;37.084;2023-09-19T04:53:40;35.83;;;16.92;;
72801;SDS011;61891;55.818;37.084;2023-09-19T04:56:06;32.03;;;16.80;;
72801;SDS011;61891;55.818;37.084;2023-09-19T04:58:33;35.15;;;18.92;;
72801;SDS011;61891;55.818;37.084;2023-09-19T05:00:59;31.77;;;16.35;;
72801;SDS011;61891;55.818;37.084;2023-09-19T05:03:25;35.50;;;16.83;;
72801;SDS011;61891;55.818;37.084;2023-09-19T05:05:50;41.88;;;21.70;;
72801;SDS011;61891;55.818;37.084;2023-09-19T05:08:16;33.05;;;16.35;;
72801;SDS011;61891;55.818;37.084;2023-09-19T05:10:42;36.80;;;18.05;;
72801;SDS011;61891;55.818;37.084;2023-09-19T05:13:08;32.53;;;18.17;;
72801;SDS011;61891;55.818;37.084;2023-09-19T05:15:33;34.03;;;18.30;;
72801;SDS011;61891;55.818;37.084;2023-09-19T05:18:01;31.77;;;17.00;;
72801;SDS011;61891;55.818;37.084;2023-09-19T05:20:26;30.10;;;16.38;;
72801;SDS011;61891;55.818;37.084;2023-09-19T05:23:04;28.13;;;15.65;;
72801;SDS011;61891;55.818;37.084;2023-09-19T05:25:36;25.77;;;13.55;;
72801;SDS011;61891;55.818;37.084;2023-09-19T05:28:03;28.95;;;15.07;;
72801;SDS011;61891;55.818;37.084;2023-09-19T05:30:31;29.33;;;14.45;;
72801;SDS011;61891;55.818;37.084;2023-09-19T05:32:57;30.85;;;14.45;;
72801;SDS011;61891;55.818;37.084;2023-09-19T05:35:24;28.63;;;13.73;;
72801;SDS011;61891;55.818;37.084;2023-09-19T05:37:52;32.35;;;15.57;;
72801;SDS011;61891;55.818;37.084;2023-09-19T05:40:19;27.35;;;13.88;;
72801;SDS011;61891;55.818;37.084;2023-09-19T05:42:48;25.88;;;11.77;;
72801;SDS011;61891;55.818;37.084;2023-09-19T05:45:16;29.13;;;13.98;;
72801;SDS011;61891;55.818;37.084;2023-09-19T05:50:15;28.33;;;14.73;;
72801;SDS011;61891;55.818;37.084;2023-09-19T05:52:42;27.33;;;13.35;;
72801;SDS011;61891;55.818;37.084;2023-09-19T05:55:11;32.85;;;13.68;;
72801;SDS011;61891;55.818;37.084;2023-09-19T05:57:37;26.48;;;13.57;;
72801;SDS011;61891;55.818;37.084;2023-09-19T06:00:08;26.10;;;12.18;;
72801;SDS011;61891;55.818;37.084;2023-09-19T06:02:38;20.42;;;9.70;;
72801;SDS011;61891;55.818;37.084;2023-09-19T06:05:06;26.67;;;13.68;;
72801;SDS011;61891;55.818;37.084;2023-09-19T06:07:35;24.85;;;13.65;;
72801;SDS011;61891;55.818;37.084;2023-09-19T06:10:03;24.00;;;12.27;;
72801;SDS011;61891;55.818;37.084;2023-09-19T06:12:37;24.52;;;12.38;;
72801;SDS011;61891;55.818;37.084;2023-09-19T06:15:11;24.83;;;12.32;;
72801;SDS011;61891;55.818;37.084;2023-09-19T06:17:53;25.45;;;12.65;;
72801;SDS011;61891;55.818;37.084;2023-09-19T06:20:21;25.65;;;13.13;;
72801;SDS011;61891;55.818;37.084;2023-09-19T06:22:48;23.95;;;11.05;;
72801;SDS011;61891;55.818;37.084;2023-09-19T06:25:15;24.63;;;12.65;;
72801;SDS011;61891;55.818;37.084;2023-09-19T06:27:46;24.60;;;12.18;;
72801;SDS011;61891;55.818;37.084;2023-09-19T06:30:12;24.38;;;12.50;;
72801;SDS011;61891;55.818;37.084;2023-09-19T06:32:43;23.10;;;10.88;;
72801;SDS011;61891;55.818;37.084;2023-09-19T06:35:12;23.23;;;12.52;;
72801;SDS011;61891;55.818;37.084;2023-09-19T06:37:40;21.80;;;12.48;;
72801;SDS011;61891;55.818;37.084;2023-09-19T06:42:46;21.10;;;11.20;;
72801;SDS011;61891;55.818;37.084;2023-09-19T06:45:15;24.65;;;12.43;;
72801;SDS011;61891;55.818;37.084;2023-09-19T06:47:45;25.15;;;13.88;;
72801;SDS011;61891;55.818;37.084;2023-09-19T06:50:14;21.48;;;11.98;;
72801;SDS011;61891;55.818;37.084;2023-09-19T06:55:07;17.33;;;10.65;;
72801;SDS011;61891;55.818;37.084;2023-09-19T06:57:35;20.85;;;10.80;;
72801;SDS011;61891;55.818;37.084;2023-09-19T07:00:01;22.10;;;11.68;;
72801;SDS011;61891;55.818;37.084;2023-09-19T07:02:29;20.98;;;12.30;;
72801;SDS011;61891;55.818;37.084;2023-09-19T07:04:55;17.75;;;10.23;;
72801;SDS011;61891;55.818;37.084;2023-09-19T07:07:21;20.33;;;9.93;;
72801;SDS011;61891;55.818;37.084;2023-09-19T07:09:46;17.70;;;10.20;;
72801;SDS011;61891;55.818;37.084;2023-09-19T07:12:14;19.77;;;11.95;;
72801;SDS011;61891;55.818;37.084;2023-09-19T07:14:40;18.75;;;11.57;;
72801;SDS011;61891;55.818;37.084;2023-09-19T07:17:06;19.00;;;10.48;;
72801;SDS011;61891;55.818;37.084;2023-09-19T07:19:34;16.02;;;10.13;;
72801;SDS011;61891;55.818;37.084;2023-09-19T07:22:03;20.00;;;11.20;;
72801;SDS011;61891;55.818;37.084;2023-09-19T07:24:29;18.40;;;10.95;;
72801;SDS011;61891;55.818;37.084;2023-09-19T07:26:55;19.75;;;11.80;;
72801;SDS011;61891;55.818;37.084;2023-09-19T07:29:20;17.27;;;9.98;;
72801;SDS011;61891;55.818;37.084;2023-09-19T07:31:46;19.98;;;11.43;;
72801;SDS011;61891;55.818;37.084;2023-09-19T07:34:12;16.48;;;11.15;;
72801;SDS011;61891;55.818;37.084;2023-09-19T07:36:39;19.73;;;11.18;;
72801;SDS011;61891;55.818;37.084;2023-09-19T07:39:07;19.35;;;11.02;;
72801;SDS011;61891;55.818;37.084;2023-09-19T07:41:33;19.02;;;11.32;;
72801;SDS011;61891;55.818;37.084;2023-09-19T07:43:59;20.35;;;11.38;;
72801;SDS011;61891;55.818;37.084;2023-09-19T07:46:26;19.73;;;13.02;;
72801;SDS011;61891;55.818;37.084;2023-09-19T07:48:51;18.45;;;11.60;;
72801;SDS011;61891;55.818;37.084;2023-09-19T07:51:17;17.60;;;10.60;;
72801;SDS011;61891;55.818;37.084;2023-09-19T07:53:44;18.60;;;11.48;;
72801;SDS011;61891;55.818;37.084;2023-09-19T07:56:10;17.52;;;10.95;;
72801;SDS011;61891;55.818;37.084;2023-09-19T07:58:38;22.67;;;11.88;;
72801;SDS011;61891;55.818;37.084;2023-09-19T08:01:07;17.38;;;8.52;;
72801;SDS011;61891;55.818;37.084;2023-09-19T08:03:34;19.38;;;11.45;;
72801;SDS011;61891;55.818;37.084;2023-09-19T08:06:03;17.38;;;11.88;;
72801;SDS011;61891;55.818;37.084;2023-09-19T08:08:29;18.98;;;11.43;;
72801;SDS011;61891;55.818;37.084;2023-09-19T08:10:55;20.63;;;13.02;;
72801;SDS011;61891;55.818;37.084;2023-09-19T08:13:22;20.33;;;11.93;;
72801;SDS011;61891;55.818;37.084;2023-09-19T08:15:49;20.42;;;11.60;;
72801;SDS011;61891;55.818;37.084;2023-09-19T08:18:16;18.50;;;10.55;;
72801;SDS011;61891;55.818;37.084;2023-09-19T08:20:43;18.83;;;11.95;;
72801;SDS011;61891;55.818;37.084;2023-09-19T08:23:14;21.10;;;12.38;;
72801;SDS011;61891;55.818;37.084;2023-09-19T08:25:39;20.85;;;11.27;;
72801;SDS011;61891;55.818;37.084;2023-09-19T08:28:05;19.35;;;12.52;;
72801;SDS011;61891;55.818;37.084;2023-09-19T08:30:34;17.73;;;12.02;;
72801;SDS011;61891;55.818;37.084;2023-09-19T08:33:00;20.45;;;12.75;;
72801;SDS011;61891;55.818;37.084;2023-09-19T08:35:27;24.00;;;12.88;;
72801;SDS011;61891;55.818;37.084;2023-09-19T08:37:54;20.02;;;13.23;;
72801;SDS011;61891;55.818;37.084;2023-09-19T08:40:21;28.35;;;15.68;;
72801;SDS011;61891;55.818;37.084;2023-09-19T08:42:51;21.25;;;13.30;;
72801;SDS011;61891;55.818;37.084;2023-09-19T08:45:22;23.48;;;13.63;;
72801;SDS011;61891;55.818;37.084;2023-09-19T08:48:10;21.73;;;12.25;;
72801;SDS011;61891;55.818;37.084;2023-09-19T08:50:47;19.90;;;12.13;;
72801;SDS011;61891;55.818;37.084;2023-09-19T08:53:26;24.27;;;13.00;;
72801;SDS011;61891;55.818;37.084;2023-09-19T08:55:59;19.73;;;10.98;;
72801;SDS011;61891;55.818;37.084;2023-09-19T08:58:30;22.13;;;12.30;;
72801;SDS011;61891;55.818;37.084;2023-09-19T09:01:00;19.05;;;12.27;;
72801;SDS011;61891;55.818;37.084;2023-09-19T09:03:29;20.77;;;12.18;;
72801;SDS011;61891;55.818;37.084;2023-09-19T09:05:59;20.42;;;12.27;;
72801;SDS011;61891;55.818;37.084;2023-09-19T09:08:25;18.88;;;12.40;;
72801;SDS011;61891;55.818;37.084;2023-09-19T09:10:51;18.73;;;11.25;;
72801;SDS011;61891;55.818;37.084;2023-09-19T09:13:17;19.13;;;12.27;;
72801;SDS011;61891;55.818;37.084;2023-09-19T09:15:43;19.30;;;12.18;;
72801;SDS011;61891;55.818;37.084;2023-09-19T09:18:13;17.33;;;12.18;;
72801;SDS011;61891;55.818;37.084;2023-09-19T09:23:05;17.77;;;11.25;;
72801;SDS011;61891;55.818;37.084;2023-09-19T09:25:47;15.60;;;10.57;;
72801;SDS011;61891;55.818;37.084;2023-09-19T09:28:21;15.32;;;10.77;;
72801;SDS011;61891;55.818;37.084;2023-09-19T09:30:52;20.10;;;12.15;;
72801;SDS011;61891;55.818;37.084;2023-09-19T09:33:18;17.85;;;11.82;;
72801;SDS011;61891;55.818;37.084;2023-09-19T09:35:49;19.33;;;11.15;;
72801;SDS011;61891;55.818;37.084;2023-09-19T09:38:25;17.67;;;11.18;;
72801;SDS011;61891;55.818;37.084;2023-09-19T09:40:59;20.70;;;13.93;;
72801;SDS011;61891;55.818;37.084;2023-09-19T09:43:26;16.33;;;12.00;;
72801;SDS011;61891;55.818;37.084;2023-09-19T09:48:48;16.48;;;10.95;;
72801;SDS011;61891;55.818;37.084;2023-09-19T09:51:57;14.80;;;11.15;;
72801;SDS011;61891;55.818;37.084;2023-09-19T09:54:26;17.58;;;11.13;;
72801;SDS011;61891;55.818;37.084;2023-09-19T09:56:59;17.15;;;10.75;;
72801;SDS011;61891;55.818;37.084;2023-09-19T09:59:45;16.55;;;10.48;;
72801;SDS011;61891;55.818;37.084;2023-09-19T10:02:19;16.55;;;11.63;;
72801;SDS011;61891;55.818;37.084;2023-09-19T10:04:58;17.70;;;11.02;;
72801;SDS011;61891;55.818;37.084;2023-09-19T10:07:47;13.57;;;10.35;;
72801;SDS011;61891;55.818;37.084;2023-09-19T10:10:35;14.63;;;11.25;;
72801;SDS011;61891;55.818;37.084;2023-09-19T10:13:10;17.00;;;12.73;;
72801;SDS011;61891;55.818;37.084;2023-09-19T10:15:43;20.20;;;11.80;;
72801;SDS011;61891;55.818;37.084;2023-09-19T10:18:21;18.55;;;11.52;;
72801;SDS011;61891;55.818;37.084;2023-09-19T10:20:52;14.50;;;10.40;;
72801;SDS011;61891;55.818;37.084;2023-09-19T10:23:19;17.23;;;11.13;;
72801;SDS011;61891;55.818;37.084;2023-09-19T10:25:49;15.65;;;11.65;;
72801;SDS011;61891;55.818;37.084;2023-09-19T10:28:16;14.80;;;10.50;;
72801;SDS011;61891;55.818;37.084;2023-09-19T10:30:47;16.65;;;10.82;;
72801;SDS011;61891;55.818;37.084;2023-09-19T10:33:17;15.75;;;11.10;;
72801;SDS011;61891;55.818;37.084;2023-09-19T10:35:47;12.65;;;10.82;;
72801;SDS011;61891;55.818;37.084;2023-09-19T10:38:19;15.57;;;10.77;;
72801;SDS011;61891;55.818;37.084;2023-09-19T10:40:52;17.02;;;10.57;;
72801;SDS011;61891;55.818;37.084;2023-09-19T10:43:20;14.55;;;10.40;;
72801;SDS011;61891;55.818;37.084;2023-09-19T10:45:50;14.57;;;11.05;;
72801;SDS011;61891;55.818;37.084;2023-09-19T10:48:18;14.98;;;11.57;;
72801;SDS011;61891;55.818;37.084;2023-09-19T10:50:49;14.05;;;9.98;;
72801;SDS011;61891;55.818;37.084;2023-09-19T10:53:20;14.23;;;10.15;;
72801;SDS011;61891;55.818;37.084;2023-09-19T10:55:52;15.43;;;10.80;;
72801;SDS011;61891;55.818;37.084;2023-09-19T10:58:26;13.02;;;10.05;;
72801;SDS011;61891;55.818;37.084;2023-09-19T11:01:00;12.18;;;9.70;;
72801;SDS011;61891;55.818;37.084;2023-09-19T11:03:38;13.25;;;10.65;;
72801;SDS011;61891;55.818;37.084;2023-09-19T11:06:26;13.43;;;11.38;;
72801;SDS011;61891;55.818;37.084;2023-09-19T11:08:56;14.40;;;10.25;;
72801;SDS011;61891;55.818;37.084;2023-09-19T11:14:15;18.45;;;10.60;;
72801;SDS011;61891;55.818;37.084;2023-09-19T11:30:35;14.50;;;11.30;;
72801;SDS011;61891;55.818;37.084;2023-09-19T11:49:16;11.95;;;9.50;;
72801;SDS011;61891;55.818;37.084;2023-09-19T11:51:46;11.00;;;9.32;;
72801;SDS011;61891;55.818;37.084;2023-09-19T11:54:16;11.50;;;10.02;;
72801;SDS011;61891;55.818;37.084;2023-09-19T11:56:48;12.40;;;9.63;;
72801;SDS011;61891;55.818;37.084;2023-09-19T11:59:21;12.82;;;8.65;;
72801;SDS011;61891;55.818;37.084;2023-09-19T12:01:51;13.65;;;8.60;;
72801;SDS011;61891;55.818;37.084;2023-09-19T12:04:41;12.18;;;9.15;;
72801;SDS011;61891;55.818;37.084;2023-09-19T12:07:10;10.13;;;8.40;;
72801;SDS011;61891;55.818;37.084;2023-09-19T12:09:42;11.50;;;8.65;;
72801;SDS011;61891;55.818;37.084;2023-09-19T12:15:05;12.40;;;8.60;;
72801;SDS011;61891;55.818;37.084;2023-09-19T12:17:36;11.50;;;7.68;;
72801;SDS011;61891;55.818;37.084;2023-09-19T12:20:02;10.05;;;7.57;;
72801;SDS011;61891;55.818;37.084;2023-09-19T12:22:41;14.13;;;7.72;;
72801;SDS011;61891;55.818;37.084;2023-09-19T12:25:09;8.48;;;6.53;;
72801;SDS011;61891;55.818;37.084;2023-09-19T12:27:46;9.88;;;6.00;;
72801;SDS011;61891;55.818;37.084;2023-09-19T12:30:15;6.50;;;5.40;;
72801;SDS011;61891;55.818;37.084;2023-09-19T12:32:46;5.50;;;5.00;;
72801;SDS011;61891;55.818;37.084;2023-09-19T12:35:28;7.57;;;5.63;;
72801;SDS011;61891;55.818;37.084;2023-09-19T12:38:00;6.80;;;5.85;;
72801;SDS011;61891;55.818;37.084;2023-09-19T12:40:26;5.40;;;4.53;;
72801;SDS011;61891;55.818;37.084;2023-09-19T12:42:58;10.13;;;4.75;;
72801;SDS011;61891;55.818;37.084;2023-09-19T12:45:25;7.07;;;4.85;;
72801;SDS011;61891;55.818;37.084;2023-09-19T12:53:42;8.10;;;5.55;;
72801;SDS011;61891;55.818;37.084;2023-09-19T12:56:10;6.45;;;4.57;;
72801;SDS011;61891;55.818;37.084;2023-09-19T12:58:52;7.00;;;5.50;;
72801;SDS011;61891;55.818;37.084;2023-09-19T13:01:22;10.48;;;5.38;;
72801;SDS011;61891;55.818;37.084;2023-09-19T13:06:47;6.30;;;4.43;;
72801;SDS011;61891;55.818;37.084;2023-09-19T13:09:24;7.20;;;4.28;;
72801;SDS011;61891;55.818;37.084;2023-09-19T13:11:53;8.50;;;5.40;;
72801;SDS011;61891;55.818;37.084;2023-09-19T13:14:21;7.70;;;4.85;;
72801;SDS011;61891;55.818;37.084;2023-09-19T13:25:13;7.00;;;5.68;;
72801;SDS011;61891;55.818;37.084;2023-09-19T13:27:41;6.20;;;5.57;;
72801;SDS011;61891;55.818;37.084;2023-09-19T13:30:10;7.97;;;5.28;;
72801;SDS011;61891;55.818;37.084;2023-09-19T13:32:36;5.50;;;5.00;;
72801;SDS011;61891;55.818;37.084;2023-09-19T13:35:05;6.07;;;5.50;;
72801;SDS011;61891;55.818;37.084;2023-09-19T13:37:34;7.53;;;5.45;;
72801;SDS011;61891;55.818;37.084;2023-09-19T13:40:13;7.47;;;6.25;;
72801;SDS011;61891;55.818;37.084;2023-09-19T13:42:40;7.82;;;6.30;;
72801;SDS011;61891;55.818;37.084;2023-09-19T13:45:07;8.65;;;5.95;;
72801;SDS011;61891;55.818;37.084;2023-09-19T13:47:37;6.70;;;5.57;;
72801;SDS011;61891;55.818;37.084;2023-09-19T13:50:06;8.00;;;5.78;;
72801;SDS011;61891;55.818;37.084;2023-09-19T13:52:33;5.78;;;5.18;;
72801;SDS011;61891;55.818;37.084;2023-09-19T13:54:59;6.60;;;5.03;;
72801;SDS011;61891;55.818;37.084;2023-09-19T13:57:25;7.40;;;5.43;;
72801;SDS011;61891;55.818;37.084;2023-09-19T13:59:52;8.35;;;5.93;;
72801;SDS011;61891;55.818;37.084;2023-09-19T14:02:22;7.82;;;5.45;;
72801;SDS011;61891;55.818;37.084;2023-09-19T14:04:49;6.32;;;4.95;;
72801;SDS011;61891;55.818;37.084;2023-09-19T14:07:19;6.80;;;6.15;;
72801;SDS011;61891;55.818;37.084;2023-09-19T14:09:45;6.70;;;4.50;;
72801;SDS011;61891;55.818;37.084;2023-09-19T14:12:12;6.35;;;5.45;;
72801;SDS011;61891;55.818;37.084;2023-09-19T14:14:38;7.10;;;6.22;;
72801;SDS011;61891;55.818;37.084;2023-09-19T14:17:04;5.55;;;5.03;;
72801;SDS011;61891;55.818;37.084;2023-09-19T14:19:32;9.43;;;4.78;;
72801;SDS011;61891;55.818;37.084;2023-09-19T14:21:58;7.97;;;6.00;;
72801;SDS011;61891;55.818;37.084;2023-09-19T14:24:25;6.47;;;5.53;;
72801;SDS011;61891;55.818;37.084;2023-09-19T14:26:51;6.35;;;5.25;;
72801;SDS011;61891;55.818;37.084;2023-09-19T14:29:17;8.07;;;6.32;;
72801;SDS011;61891;55.818;37.084;2023-09-19T14:31:43;6.82;;;5.80;;
72801;SDS011;61891;55.818;37.084;2023-09-19T14:34:09;6.45;;;5.68;;
72801;SDS011;61891;55.818;37.084;2023-09-19T14:36:35;8.50;;;5.85;;
72801;SDS011;61891;55.818;37.084;2023-09-19T14:39:01;8.00;;;5.93;;
72801;SDS011;61891;55.818;37.084;2023-09-19T14:41:30;7.68;;;5.85;;
72801;SDS011;61891;55.818;37.084;2023-09-19T14:43:56;5.97;;;5.35;;
72801;SDS011;61891;55.818;37.084;2023-09-19T14:46:23;8.38;;;5.50;;
72801;SDS011;61891;55.818;37.084;2023-09-19T14:48:53;7.60;;;5.38;;
72801;SDS011;61891;55.818;37.084;2023-09-19T14:51:19;7.05;;;5.35;;
72801;SDS011;61891;55.818;37.084;2023-09-19T14:53:48;10.23;;;5.80;;
72801;SDS011;61891;55.818;37.084;2023-09-19T14:56:17;6.35;;;5.47;;
72801;SDS011;61891;55.818;37.084;2023-09-19T14:58:45;8.43;;;5.60;;
72801;SDS011;61891;55.818;37.084;2023-09-19T15:01:13;7.82;;;5.43;;
72801;SDS011;61891;55.818;37.084;2023-09-19T15:03:40;7.90;;;6.30;;
72801;SDS011;61891;55.818;37.084;2023-09-19T15:06:08;10.70;;;6.55;;
72801;SDS011;61891;55.818;37.084;2023-09-19T15:08:38;10.48;;;7.22;;
72801;SDS011;61891;55.818;37.084;2023-09-19T15:11:04;11.10;;;7.05;;
72801;SDS011;61891;55.818;37.084;2023-09-19T15:13:31;9.45;;;6.85;;
72801;SDS011;61891;55.818;37.084;2023-09-19T15:16:01;12.63;;;8.93;;
72801;SDS011;61891;55.818;37.084;2023-09-19T15:18:28;10.45;;;6.63;;
72801;SDS011;61891;55.818;37.084;2023-09-19T15:21:02;10.43;;;7.53;;
72801;SDS011;61891;55.818;37.084;2023-09-19T15:26:00;9.35;;;7.00;;
72801;SDS011;61891;55.818;37.084;2023-09-19T15:28:27;10.75;;;7.47;;
72801;SDS011;61891;55.818;37.084;2023-09-19T15:31:04;10.65;;;8.13;;
72801;SDS011;61891;55.818;37.084;2023-09-19T15:33:32;17.85;;;10.23;;
72801;SDS011;61891;55.818;37.084;2023-09-19T15:41:26;19.55;;;11.15;;
72801;SDS011;61891;55.818;37.084;2023-09-19T15:43:54;12.40;;;9.27;;
72801;SDS011;61891;55.818;37.084;2023-09-19T15:46:20;14.63;;;9.02;;
72801;SDS011;61891;55.818;37.084;2023-09-19T15:48:47;15.10;;;8.90;;
72801;SDS011;61891;55.818;37.084;2023-09-19T15:51:13;15.60;;;9.18;;
72801;SDS011;61891;55.818;37.084;2023-09-19T15:53:45;21.02;;;10.93;;
72801;SDS011;61891;55.818;37.084;2023-09-19T15:56:15;21.98;;;12.80;;
72801;SDS011;61891;55.818;37.084;2023-09-19T15:58:45;22.50;;;13.13;;
72801;SDS011;61891;55.818;37.084;2023-09-19T16:01:11;23.35;;;13.45;;
72801;SDS011;61891;55.818;37.084;2023-09-19T16:03:39;25.55;;;15.15;;
72801;SDS011;61891;55.818;37.084;2023-09-19T16:06:09;28.17;;;16.75;;
72801;SDS011;61891;55.818;37.084;2023-09-19T16:08:59;22.92;;;14.77;;
72801;SDS011;61891;55.818;37.084;2023-09-19T16:11:29;19.25;;;11.98;;
72801;SDS011;61891;55.818;37.084;2023-09-19T16:13:57;18.92;;;11.68;;
72801;SDS011;61891;55.818;37.084;2023-09-19T16:16:26;16.23;;;10.60;;